Time;durP1;ratioP1;P1;durP2;ratioP2;P2;SDS_P1;SDS_P2;PMS_P1;PMS_P2;Temp;Humidity;BMP_temperature;BMP_pressure;BME280_temperature;BME280_humidity;BME280_pressure;Samples;Min_cycle;Max_cycle;Signal;HPM_P1;HPM_P2
2022/01/09 00:00:21;;;;;;;7.20;4.50;;;5.10;1.00;5.60;98166.00;;;;5044589;28;20495;-82
2022/01/09 00:02:50;;;;;;;6.47;4.20;;;5.10;1.00;5.60;98168.00;;;;5026458;28;20564;-82
2022/01/09 00:05:20;;;;;;;6.93;4.20;;;5.10;1.00;5.70;98170.00;;;;5027369;28;20461;-82
2022/01/09 00:07:49;;;;;;;5.50;4.77;;;5.30;1.00;5.70;67509.00;;;;5026296;28;20476;-84
2022/01/09 00:10:18;;;;;;;5.57;4.30;;;5.20;1.00;217.30;159096.00;;;;5017757;28;20481;-80
2022/01/09 00:12:47;;;;;;;4.80;4.30;;;5.10;1.00;5.60;98182.00;;;;5023548;28;20457;-79
2022/01/09 00:15:15;;;;;;;5.37;4.67;;;5.10;1.00;5.60;98180.00;;;;5018910;28;20458;-78
2022/01/09 00:17:44;;;;;;;6.03;4.73;;;5.00;1.00;217.30;159092.00;;;;5031735;28;20465;-81
2022/01/09 00:20:15;;;;;;;4.93;4.43;;;5.10;1.00;5.60;67509.00;;;;5032861;28;20484;-81
2022/01/09 00:22:45;;;;;;;5.80;4.80;;;5.10;1.00;5.70;98159.00;;;;5031387;28;20563;-80
2022/01/09 00:25:16;;;;;;;4.20;3.70;;;5.20;1.00;5.70;98110.00;;;;5022705;28;20464;-82
2022/01/09 00:27:53;;;;;;;6.23;4.70;;;5.20;1.00;5.70;98113.00;;;;5021551;28;20461;-81
2022/01/09 00:30:24;;;;;;;6.50;4.00;;;5.20;1.00;217.30;159123.00;;;;5027780;28;21772;-81
2022/01/09 00:32:53;;;;;;;6.67;4.43;;;5.20;1.00;5.70;67515.00;;;;5033504;28;20997;-81
2022/01/09 00:35:23;;;;;;;5.97;4.63;;;5.20;1.00;5.70;67520.00;;;;5028214;28;20483;-82
2022/01/09 00:37:52;;;;;;;5.50;4.70;;;5.20;1.00;5.70;67524.00;;;;5026424;28;20438;-80
2022/01/09 00:40:20;;;;;;;5.83;4.20;;;5.20;1.00;5.70;67515.00;;;;5021709;28;20477;-80
2022/01/09 00:42:50;;;;;;;6.53;4.57;;;5.20;1.00;5.70;67509.00;;;;5022001;28;20480;-81
2022/01/09 00:45:20;;;;;;;4.47;3.83;;;5.20;1.00;217.30;159092.00;;;;5019575;28;20479;-81
2022/01/09 00:47:48;;;;;;;4.47;3.80;;;5.20;1.00;217.30;159086.00;;;;5020846;28;20487;-80
2022/01/09 00:50:17;;;;;;;5.13;3.87;;;5.20;1.00;5.60;67500.00;;;;5033469;28;20506;-80
2022/01/09 00:52:47;;;;;;;7.90;3.73;;;5.20;1.00;5.60;98134.00;;;;5017927;28;20548;-80
2022/01/09 00:55:18;;;;;;;4.70;3.60;;;5.10;1.00;5.50;98054.00;;;;5027238;28;20465;-81
2022/01/09 00:57:47;;;;;;;6.30;4.53;;;5.10;1.00;5.50;98063.00;;;;5028431;28;20560;-81
2022/01/09 01:00:16;;;;;;;4.20;3.77;;;5.00;1.00;5.50;98045.00;;;;5029676;28;20493;-81
2022/01/09 01:02:44;;;;;;;4.93;3.97;;;5.00;1.00;5.50;98066.00;;;;5027414;28;20571;-81
2022/01/09 01:05:15;;;;;;;4.70;3.50;;;5.00;1.00;5.50;98052.00;;;;5022059;28;20543;-81
2022/01/09 01:07:48;;;;;;;5.07;4.40;;;5.00;1.00;52.70;159024.00;;;;5018302;28;20442;-80
2022/01/09 01:10:17;;;;;;;7.93;4.20;;;5.00;1.00;5.50;98095.00;;;;5033101;28;20481;-83
2022/01/09 01:12:45;;;;;;;4.93;4.07;;;5.00;1.00;5.50;67457.00;;;;5019139;28;20461;-80
2022/01/09 01:15:13;;;;;;;4.77;3.90;;;5.00;1.00;5.50;67461.00;;;;5021713;28;20468;-81
2022/01/09 01:17:42;;;;;;;4.33;3.70;;;5.00;1.00;5.50;98068.00;;;;5021082;28;20464;-82
2022/01/09 01:20:12;;;;;;;4.23;3.70;;;5.00;1.00;5.50;98034.00;;;;5024659;28;20536;-83
2022/01/09 01:22:41;;;;;;;4.43;3.70;;;5.00;1.00;5.50;67469.00;;;;5025274;28;20899;-83
2022/01/09 01:25:11;;;;;;;4.93;4.03;;;5.00;1.00;5.50;67469.00;;;;5022917;28;20473;-81
2022/01/09 01:27:40;;;;;;;4.97;3.80;;;5.00;1.00;5.50;67479.00;;;;5022021;28;20457;-81
2022/01/09 01:30:10;;;;;;;4.43;3.47;;;5.00;1.00;5.50;98023.00;;;;5024352;28;20481;-81
2022/01/09 01:32:39;;;;;;;4.93;3.50;;;5.00;1.00;5.50;98025.00;;;;5025762;28;20471;-81
2022/01/09 01:35:09;;;;;;;6.07;3.80;;;5.00;1.00;5.60;97912.00;;;;5023954;28;20458;-82
2022/01/09 01:37:41;;;;;;;4.10;3.60;;;5.10;1.00;5.60;97892.00;;;;5034772;28;20759;-80
2022/01/09 01:40:16;;;;;;;4.93;3.70;;;5.10;1.00;5.60;98024.00;;;;5023618;28;20456;-81
2022/01/09 01:42:46;;;;;;;5.30;3.50;;;5.20;1.00;5.60;98012.00;;;;5025271;28;20469;-81
2022/01/09 01:45:15;;;;;;;3.93;3.50;;;5.30;1.00;5.60;98005.00;;;;5023090;28;20480;-80
2022/01/09 01:47:44;;;;;;;3.73;3.30;;;5.20;1.00;5.70;97413.00;;;;5022796;28;20463;-80
2022/01/09 01:50:14;;;;;;;5.50;3.67;;;5.20;1.00;5.70;98016.00;;;;5021275;28;20835;-80
2022/01/09 01:52:48;;;;;;;3.90;3.20;;;5.20;1.00;5.70;98012.00;;;;5019951;28;20457;-80
2022/01/09 01:55:18;;;;;;;4.60;3.30;;;5.20;1.00;5.70;98012.00;;;;5025542;28;20549;-80
2022/01/09 01:57:47;;;;;;;4.67;3.90;;;5.20;1.00;5.70;98015.00;;;;5027571;28;20473;-81
2022/01/09 02:00:17;;;;;;;4.00;3.40;;;5.20;1.00;5.70;98001.00;;;;5046855;28;20473;-78
2022/01/09 02:02:45;;;;;;;6.73;3.67;;;5.30;1.00;217.30;159153.00;;;;5036301;28;20468;-80
2022/01/09 02:05:14;;;;;;;3.70;3.30;;;5.30;1.00;5.80;98005.00;;;;5038328;28;20476;-81
2022/01/09 02:07:42;;;;;;;5.43;3.50;;;5.30;1.00;217.30;159159.00;;;;5046887;28;20771;-81
2022/01/09 02:10:11;;;;;;;5.67;3.20;;;5.30;1.00;5.80;98021.00;;;;5045032;28;20476;-81
2022/01/09 02:12:41;;;;;;;3.60;2.93;;;5.60;1.00;217.30;159181.00;;;;5040552;28;20532;-84
2022/01/09 02:15:33;;;;;;;4.57;3.63;;;5.30;1.00;5.80;67543.00;;;;5054511;28;20441;-82
2022/01/09 02:18:04;;;;;;;4.47;3.27;;;5.50;1.00;5.80;67539.00;;;;5036474;28;20466;-82
2022/01/09 02:20:35;;;;;;;3.43;2.70;;;5.30;1.00;5.70;67531.00;;;;5021256;28;20583;-82
2022/01/09 02:23:05;;;;;;;4.30;3.13;;;5.30;1.00;5.80;97991.00;;;;5020608;28;20445;-82
2022/01/09 02:25:34;;;;;;;4.50;2.97;;;5.30;1.00;52.70;159143.00;;;;5021094;28;20469;-80
2022/01/09 02:28:04;;;;;;;3.00;2.70;;;5.40;1.00;5.80;98004.00;;;;5021484;28;20499;-81
2022/01/09 02:30:33;;;;;;;3.20;2.90;;;5.40;1.00;217.30;159207.00;;;;5024305;28;20547;-80
2022/01/09 02:33:02;;;;;;;3.70;2.70;;;5.40;1.00;5.90;67548.00;;;;5023733;28;20480;-80
2022/01/09 02:35:32;;;;;;;3.10;2.80;;;5.40;1.00;217.30;159201.00;;;;5023331;28;20571;-81
2022/01/09 02:38:01;;;;;;;3.30;2.50;;;5.40;1.00;5.90;67562.00;;;;5027849;28;20836;-80
2022/01/09 02:40:30;;;;;;;3.33;2.40;;;5.50;1.00;5.90;67566.00;;;;5046240;28;20510;-81
2022/01/09 02:42:58;;;;;;;3.13;2.50;;;5.50;1.00;5.90;67562.00;;;;5029129;28;20540;-82
2022/01/09 02:45:28;;;;;;;3.50;2.60;;;5.50;1.00;5.90;67573.00;;;;5032187;28;20484;-83
2022/01/09 02:48:00;;;;;;;4.30;3.40;;;5.50;1.00;6.00;67582.00;;;;5025156;28;20658;-79
2022/01/09 02:50:34;;;;;;;2.87;2.67;;;5.60;1.00;6.00;67595.00;;;;5013634;28;20559;-79
2022/01/09 02:53:15;;;;;;;4.20;3.20;;;5.60;1.00;6.00;98012.00;;;;5022279;28;20467;-79
2022/01/09 02:55:44;;;;;;;3.17;2.83;;;5.60;1.00;6.00;98024.00;;;;5014390;28;20532;-79
2022/01/09 02:58:12;;;;;;;3.87;3.20;;;5.60;1.00;6.00;98040.00;;;;5021702;28;20454;-81
2022/01/09 03:00:43;;;;;;;3.47;2.73;;;5.60;1.00;6.10;98016.00;;;;5039767;28;20504;-81
2022/01/09 03:03:14;;;;;;;3.53;2.97;;;5.70;1.00;6.00;98021.00;;;;5024289;28;20487;-81
2022/01/09 03:05:42;;;;;;;3.73;2.70;;;5.60;1.00;6.00;97998.00;;;;5025818;28;20469;-81
2022/01/09 03:08:12;;;;;;;3.10;2.60;;;5.70;1.00;6.10;98025.00;;;;5026427;28;20449;-83
2022/01/09 03:10:41;;;;;;;3.43;3.13;;;5.70;1.00;217.30;159290.00;;;;5032571;28;20495;-82
2022/01/09 03:13:09;;;;;;;3.30;2.83;;;5.70;1.00;6.10;98003.00;;;;5022794;28;20477;-81
2022/01/09 03:15:37;;;;;;;4.37;2.70;;;5.70;1.00;6.10;98012.00;;;;5025391;28;20475;-80
2022/01/09 03:18:06;;;;;;;2.50;2.30;;;5.80;1.00;6.10;98004.00;;;;5023300;28;20520;-81
2022/01/09 03:20:34;;;;;;;2.40;2.20;;;5.70;1.00;6.10;98008.00;;;;5024184;28;20481;-83
2022/01/09 03:23:03;;;;;;;2.40;2.20;;;5.70;1.00;6.10;98018.00;;;;5021701;28;20472;-80
2022/01/09 03:25:33;;;;;;;3.03;2.40;;;5.70;1.00;6.20;67623.00;;;;5021629;28;21594;-81
2022/01/09 03:28:02;;;;;;;3.10;2.60;;;5.80;1.00;6.20;98043.00;;;;5034348;28;20832;-80
2022/01/09 03:30:32;;;;;;;2.57;2.20;;;5.80;1.00;6.20;67634.00;;;;5035240;28;20990;-81
2022/01/09 03:33:01;;;;;;;1.80;1.40;;;5.80;1.00;6.20;67620.00;;;;5038041;28;20461;-82
2022/01/09 03:35:30;;;;;;;1.87;1.67;;;5.80;1.00;6.10;98038.00;;;;5043686;28;20467;-79
2022/01/09 03:37:58;;;;;;;2.50;2.13;;;5.80;1.00;6.20;98037.00;;;;5025899;28;20966;-79
2022/01/09 03:40:28;;;;;;;3.37;2.30;;;5.80;1.00;6.20;67634.00;;;;5020126;28;20485;-78
2022/01/09 03:42:58;;;;;;;2.30;1.30;;;5.80;1.00;6.20;98025.00;;;;5017754;28;20855;-78
2022/01/09 03:45:28;;;;;;;2.00;1.60;;;5.80;1.00;6.10;98029.00;;;;5042265;28;20504;-79
2022/01/09 03:47:58;;;;;;;2.23;2.00;;;5.80;1.00;6.10;98040.00;;;;5020680;28;20997;-79
2022/01/09 03:50:27;;;;;;;5.43;1.60;;;5.80;1.00;6.10;98018.00;;;;5024919;28;20476;-79
2022/01/09 03:52:55;;;;;;;2.00;1.40;;;5.80;1.00;6.10;98034.00;;;;5028805;28;20447;-79
2022/01/09 03:55:25;;;;;;;2.07;1.47;;;5.80;1.00;6.20;98038.00;;;;5037763;28;20506;-81
2022/01/09 03:57:54;;;;;;;1.73;1.10;;;5.80;1.00;6.20;98034.00;;;;5030547;28;20474;-79
2022/01/09 04:00:25;;;;;;;1.30;0.90;;;5.90;1.00;6.20;98027.00;;;;5021867;28;20492;-78
2022/01/09 04:02:54;;;;;;;2.10;1.13;;;5.80;1.00;6.10;98033.00;;;;5021301;28;20461;-79
2022/01/09 04:05:23;;;;;;;1.30;1.00;;;5.70;1.00;6.10;98051.00;;;;5022195;28;20491;-79
2022/01/09 04:07:52;;;;;;;1.50;1.10;;;5.80;1.00;6.10;98044.00;;;;5017390;28;20445;-78
2022/01/09 04:10:41;;;;;;;1.77;1.00;;;5.70;1.00;6.10;98038.00;;;;5017178;28;21060;-77
2022/01/09 04:13:12;;;;;;;1.73;0.80;;;5.70;1.00;6.10;98072.00;;;;5026823;28;20460;-77
2022/01/09 04:15:46;;;;;;;1.37;1.00;;;5.70;1.00;6.10;98062.00;;;;5021792;28;20465;-77
2022/01/09 04:18:16;;;;;;;1.60;0.90;;;5.70;1.00;6.10;98067.00;;;;5022441;28;20459;-77
2022/01/09 04:20:44;;;;;;;1.70;1.17;;;5.70;1.00;6.00;98083.00;;;;5024609;28;20477;-77
2022/01/09 04:23:13;;;;;;;1.30;1.00;;;5.80;1.00;6.00;98082.00;;;;5032533;28;20450;-77
2022/01/09 04:25:42;;;;;;;1.33;0.97;;;5.60;1.00;6.00;98091.00;;;;5030987;28;20488;-78
2022/01/09 04:28:10;;;;;;;2.03;1.13;;;5.60;1.00;6.00;98104.00;;;;5046057;28;20515;-77
2022/01/09 04:30:39;;;;;;;2.23;1.00;;;5.60;1.00;6.00;98116.00;;;;5028119;28;20488;-77
2022/01/09 04:33:10;;;;;;;1.03;0.70;;;5.60;1.00;5.90;98102.00;;;;5027596;28;20476;-78
2022/01/09 04:35:41;;;;;;;1.30;0.90;;;5.60;1.00;5.90;98116.00;;;;5025325;28;20458;-77
2022/01/09 04:38:10;;;;;;;1.20;0.70;;;5.50;1.00;5.90;98139.00;;;;5024645;28;20869;-78
2022/01/09 04:40:38;;;;;;;1.10;0.80;;;5.50;1.00;5.90;98120.00;;;;5015996;28;20489;-77
2022/01/09 04:43:09;;;;;;;1.33;1.10;;;5.50;1.00;5.80;98154.00;;;;5014006;28;20467;-77
2022/01/09 04:45:37;;;;;;;1.40;0.73;;;5.40;1.00;5.80;98157.00;;;;5014245;28;21514;-77
2022/01/09 04:48:09;;;;;;;1.47;1.00;;;5.30;1.00;5.80;98169.00;;;;5037393;28;20461;-77
2022/01/09 04:50:40;;;;;;;1.93;0.83;;;5.40;1.00;5.80;98182.00;;;;5011210;28;20477;-77
2022/01/09 04:53:09;;;;;;;1.00;0.60;;;5.40;1.00;5.80;98178.00;;;;5013029;28;20462;-77
2022/01/09 04:55:40;;;;;;;1.90;0.80;;;5.40;1.00;5.80;98179.00;;;;5010347;28;20464;-77
2022/01/09 04:58:09;;;;;;;1.00;0.60;;;5.30;1.00;5.80;98196.00;;;;5009643;28;20472;-77
2022/01/09 05:00:40;;;;;;;0.90;0.60;;;5.40;1.00;5.70;98196.00;;;;5013062;28;20473;-77
2022/01/09 05:03:12;;;;;;;2.30;0.70;;;5.30;1.00;5.70;98202.00;;;;5012936;28;20469;-78
2022/01/09 05:05:41;;;;;;;1.37;0.67;;;5.30;1.00;5.70;67530.00;;;;5008396;28;20469;-79
2022/01/09 05:08:09;;;;;;;1.53;0.60;;;5.30;1.00;5.70;98214.00;;;;5012931;28;20543;-78
2022/01/09 05:10:38;;;;;;;1.00;0.60;;;5.30;1.00;5.80;98230.00;;;;5009835;28;21100;-78
2022/01/09 05:13:06;;;;;;;0.90;0.50;;;5.30;1.00;5.80;98238.00;;;;5008279;28;21036;-78
2022/01/09 05:15:35;;;;;;;1.53;0.70;;;5.40;1.00;5.80;98256.00;;;;5025741;28;20481;-78
2022/01/09 05:18:11;;;;;;;1.40;0.60;;;5.30;1.00;5.70;98266.00;;;;5024964;28;20449;-78
2022/01/09 05:20:42;;;;;;;1.53;0.50;;;5.30;1.00;5.70;98259.00;;;;5028228;28;20473;-77
2022/01/09 05:23:10;;;;;;;1.33;0.70;;;5.30;1.00;5.70;98267.00;;;;5025127;28;21020;-78
2022/01/09 05:25:39;;;;;;;0.90;0.40;;;5.20;1.00;5.60;98282.00;;;;5014793;28;20477;-77
2022/01/09 05:28:07;;;;;;;1.20;0.40;;;5.20;1.00;5.60;67492.00;;;;5010760;28;20966;-78
2022/01/09 05:30:35;;;;;;;1.00;0.50;;;5.20;1.00;5.50;98306.00;;;;5014400;28;20473;-78
2022/01/09 05:33:04;;;;;;;1.57;0.50;;;5.10;1.00;5.50;67466.00;;;;5013844;28;20453;-78
2022/01/09 05:35:32;;;;;;;0.90;0.50;;;5.10;1.00;5.40;98330.00;;;;5015526;28;20456;-78
2022/01/09 05:38:02;;;;;;;0.90;0.40;;;5.00;1.00;5.40;98339.00;;;;5026962;28;20467;-80
2022/01/09 05:40:30;;;;;;;1.00;0.50;;;5.00;1.00;5.40;98349.00;;;;5032963;28;20485;-79
2022/01/09 05:42:59;;;;;;;0.90;0.40;;;5.00;1.00;5.40;98351.00;;;;5019478;28;20461;-79
2022/01/09 05:45:27;;;;;;;0.90;0.40;;;5.00;1.00;5.40;98370.00;;;;5020234;28;20464;-78
2022/01/09 05:47:55;;;;;;;0.90;0.40;;;5.00;1.00;5.40;98365.00;;;;5019350;28;20464;-78
2022/01/09 05:50:24;;;;;;;1.13;0.50;;;5.00;1.00;5.40;98367.00;;;;5022725;28;20475;-79
2022/01/09 05:52:52;;;;;;;1.00;0.50;;;5.00;1.00;5.40;98366.00;;;;5015008;28;20966;-79
2022/01/09 05:55:22;;;;;;;1.40;0.50;;;5.00;1.00;5.40;98386.00;;;;5010251;28;20461;-79
2022/01/09 05:57:51;;;;;;;1.10;0.70;;;5.00;1.00;5.40;98368.00;;;;5016712;28;20457;-79
2022/01/09 06:00:19;;;;;;;1.77;0.77;;;5.00;1.00;5.40;98381.00;;;;5010175;28;20480;-79
2022/01/09 06:02:47;;;;;;;1.20;0.50;;;5.00;1.00;5.40;98367.00;;;;5007737;28;20501;-79
2022/01/09 06:05:16;;;;;;;1.10;0.60;;;5.00;1.00;5.40;98383.00;;;;5022708;28;20462;-79
2022/01/09 06:07:45;;;;;;;1.10;0.60;;;5.00;1.00;5.40;98396.00;;;;5021285;28;20483;-77
2022/01/09 06:10:14;;;;;;;1.33;0.60;;;5.00;1.00;5.40;98375.00;;;;5031071;28;20459;-79
2022/01/09 06:12:43;;;;;;;0.90;0.50;;;5.00;1.00;5.40;98405.00;;;;5033321;28;20488;-77
2022/01/09 06:15:12;;;;;;;1.17;0.70;;;5.00;1.00;5.40;98395.00;;;;5030555;28;20525;-78
2022/01/09 06:17:43;;;;;;;1.20;0.50;;;5.00;1.00;5.40;98402.00;;;;5040679;28;20492;-78
2022/01/09 06:20:14;;;;;;;1.00;0.57;;;5.00;1.00;5.40;98409.00;;;;5014607;28;20469;-78
2022/01/09 06:22:44;;;;;;;2.00;0.80;;;4.90;1.00;5.40;98417.00;;;;5010500;28;20472;-78
2022/01/09 06:25:14;;;;;;;1.30;0.70;;;4.90;1.00;5.40;98420.00;;;;5014213;28;20461;-78
2022/01/09 06:27:44;;;;;;;2.80;0.80;;;5.00;1.00;5.50;98391.00;;;;5014303;28;20484;-78
2022/01/09 06:30:13;;;;;;;2.30;0.70;;;5.00;1.00;5.40;98416.00;;;;5011974;28;20469;-78
2022/01/09 06:32:42;;;;;;;1.77;0.97;;;5.00;1.00;5.50;98432.00;;;;5008807;28;20461;-77
2022/01/09 06:35:12;;;;;;;2.40;1.00;;;5.00;1.00;5.50;98436.00;;;;5011847;28;20464;-78
2022/01/09 06:37:40;;;;;;;2.07;1.00;;;5.10;1.00;5.50;98452.00;;;;5013395;28;20744;-78
2022/01/09 06:40:11;;;;;;;3.43;1.17;;;5.10;1.00;217.30;159066.00;;;;5014873;28;20492;-79
2022/01/09 06:42:39;;;;;;;3.13;1.03;;;5.10;1.00;5.60;67490.00;;;;5011225;28;20461;-79
2022/01/09 06:45:10;;;;;;;2.80;1.53;;;5.10;1.00;5.60;98473.00;;;;5009429;28;20465;-79
2022/01/09 06:47:38;;;;;;;5.37;1.40;;;5.20;1.00;5.60;98493.00;;;;5013856;28;20473;-78
2022/01/09 06:50:10;;;;;;;5.93;1.47;;;5.20;1.00;5.60;98473.00;;;;5015074;28;20560;-78
2022/01/09 06:52:39;;;;;;;4.50;1.30;;;5.20;1.00;5.60;98477.00;;;;5012696;28;20460;-78
2022/01/09 06:55:09;;;;;;;4.80;1.30;;;5.20;1.00;5.60;98475.00;;;;5016619;28;20472;-78
2022/01/09 06:57:37;;;;;;;4.23;1.70;;;5.20;1.00;5.60;98491.00;;;;5017970;28;20465;-77
2022/01/09 07:00:17;;;;;;;6.07;1.40;;;5.20;1.00;5.60;98509.00;;;;5018835;28;20855;-79
2022/01/09 07:02:46;;;;;;;4.10;1.80;;;5.20;1.00;5.60;67498.00;;;;5019048;28;20537;-79
2022/01/09 07:05:15;;;;;;;3.73;1.40;;;5.20;1.00;5.60;98503.00;;;;5025347;28;20481;-79
2022/01/09 07:07:44;;;;;;;2.67;1.60;;;5.20;1.00;5.60;98536.00;;;;5020629;28;20580;-78
2022/01/09 07:10:13;;;;;;;3.93;1.43;;;5.20;1.00;5.60;98541.00;;;;5029396;28;20461;-80
2022/01/09 07:12:42;;;;;;;3.67;1.73;;;5.20;1.00;5.70;98542.00;;;;5047161;28;20443;-78
2022/01/09 07:15:12;;;;;;;3.03;1.80;;;5.30;1.00;5.70;98551.00;;;;5044767;28;20441;-78
2022/01/09 07:17:41;;;;;;;4.60;1.50;;;5.30;1.00;5.70;98527.00;;;;5054353;28;20476;-78
2022/01/09 07:20:11;;;;;;;3.40;1.83;;;5.30;1.00;5.70;98571.00;;;;5036826;28;20568;-77
2022/01/09 07:22:39;;;;;;;3.90;1.63;;;5.30;1.00;5.80;98582.00;;;;5062772;28;20513;-79
2022/01/09 07:25:09;;;;;;;5.00;2.03;;;5.40;1.00;5.80;98595.00;;;;5034658;28;20471;-80
2022/01/09 07:27:37;;;;;;;3.00;1.50;;;5.40;1.00;5.80;98579.00;;;;5013798;28;20481;-79
2022/01/09 07:30:08;;;;;;;5.63;1.80;;;5.40;1.00;5.80;98590.00;;;;5012531;28;20483;-79
2022/01/09 07:32:40;;;;;;;6.67;1.80;;;5.40;1.00;5.80;67544.00;;;;5014072;28;21188;-78
2022/01/09 07:35:09;;;;;;;4.10;2.10;;;5.40;1.00;5.80;98606.00;;;;5012960;28;20449;-79
2022/01/09 07:37:38;;;;;;;6.90;2.60;;;5.40;1.00;217.30;159175.00;;;;5013247;28;20488;-79
2022/01/09 07:40:07;;;;;;;3.57;2.00;;;5.40;1.00;5.80;98624.00;;;;5010789;28;20476;-78
2022/01/09 07:42:36;;;;;;;5.73;2.57;;;5.40;1.00;5.80;98638.00;;;;5010530;28;20463;-78
2022/01/09 07:45:07;;;;;;;6.80;2.70;;;5.40;1.00;5.80;98623.00;;;;5016379;28;20462;-79
2022/01/09 07:47:37;;;;;;;3.07;1.80;;;5.40;1.00;217.30;159169.00;;;;5014716;28;20472;-78
2022/01/09 07:50:10;;;;;;;7.80;2.87;;;5.40;1.00;217.30;159169.00;;;;5018798;28;20480;-79
2022/01/09 07:52:39;;;;;;;8.13;2.57;;;5.40;1.00;5.80;67539.00;;;;5018555;28;20860;-80
2022/01/09 07:55:09;;;;;;;11.53;2.50;;;5.40;1.00;5.80;67539.00;;;;5016095;28;20552;-80
2022/01/09 07:57:38;;;;;;;9.37;2.80;;;5.40;1.00;5.90;67551.00;;;;5019105;28;20463;-79
2022/01/09 08:00:09;;;;;;;4.83;2.43;;;5.40;1.00;5.80;98675.00;;;;5015479;28;20480;-79
2022/01/09 08:02:42;;;;;;;11.73;3.17;;;5.40;1.00;217.30;159191.00;;;;5015685;28;20880;-79
2022/01/09 08:05:12;;;;;;;7.97;2.43;;;5.40;1.00;5.90;98689.00;;;;5018771;28;20485;-79
2022/01/09 08:07:41;;;;;;;4.17;2.20;;;5.50;1.00;5.90;98697.00;;;;5021721;28;20491;-78
2022/01/09 08:10:11;;;;;;;6.67;2.37;;;5.50;1.00;5.90;98698.00;;;;5038565;28;20457;-79
2022/01/09 08:12:40;;;;;;;7.20;2.50;;;5.50;1.00;5.90;98696.00;;;;5035380;28;20520;-79
2022/01/09 08:15:11;;;;;;;8.20;3.00;;;5.70;1.00;5.90;98715.00;;;;5037451;28;20433;-80
2022/01/09 08:17:44;;;;;;;5.73;2.50;;;5.50;1.00;5.90;67573.00;;;;5039629;28;20460;-78
2022/01/09 08:20:14;;;;;;;11.97;4.03;;;5.50;1.00;6.00;98728.00;;;;5038416;28;20489;-79
2022/01/09 08:22:49;;;;;;;6.23;3.23;;;5.60;1.00;6.00;67582.00;;;;5035356;28;20467;-79
2022/01/09 08:25:19;;;;;;;10.60;3.13;;;5.60;1.00;6.00;98751.00;;;;5037561;28;20453;-80
2022/01/09 08:27:49;;;;;;;8.43;2.40;;;5.60;1.00;217.30;159264.00;;;;5026130;28;21422;-79
2022/01/09 08:30:20;;;;;;;7.77;2.70;;;5.70;1.00;6.00;67595.00;;;;5023164;28;20478;-80
2022/01/09 08:32:52;;;;;;;12.80;3.07;;;5.60;1.00;6.00;98770.00;;;;5022063;28;20552;-80
2022/01/09 08:35:21;;;;;;;8.83;2.70;;;5.60;1.00;217.30;159236.00;;;;5035308;28;20463;-80
2022/01/09 08:37:51;;;;;;;9.37;2.60;;;5.60;1.00;6.00;98794.00;;;;5035565;28;20547;-79
2022/01/09 08:40:22;;;;;;;9.37;3.47;;;5.60;1.00;6.00;98779.00;;;;5033269;28;20536;-79
2022/01/09 08:42:53;;;;;;;12.33;2.70;;;5.60;1.00;6.00;98801.00;;;;5040098;28;20522;-78
2022/01/09 08:45:23;;;;;;;9.60;2.93;;;5.60;1.00;5.90;98808.00;;;;5039762;28;20449;-78
2022/01/09 08:47:53;;;;;;;8.53;3.50;;;5.50;1.00;5.90;98832.00;;;;5036038;28;20552;-79
2022/01/09 08:50:22;;;;;;;8.00;3.20;;;5.60;1.00;217.30;159226.00;;;;5036341;28;20481;-80
2022/01/09 08:52:52;;;;;;;10.70;3.10;;;5.60;1.00;6.00;67573.00;;;;5035728;28;20813;-80
2022/01/09 08:55:25;;;;;;;10.93;3.20;;;5.60;1.00;217.30;159222.00;;;;5042584;28;20422;-80
2022/01/09 08:57:54;;;;;;;9.40;2.63;;;5.60;1.00;6.00;67576.00;;;;5042420;28;20446;-79
2022/01/09 09:00:22;;;;;;;8.23;2.70;;;5.60;1.00;217.30;159226.00;;;;5034548;28;20472;-80
2022/01/09 09:02:52;;;;;;;5.13;2.37;;;5.50;1.00;5.80;67548.00;;;;5036939;28;20452;-79
2022/01/09 09:05:21;;;;;;;4.93;2.30;;;5.60;1.00;5.80;67543.00;;;;5029581;28;20449;-78
2022/01/09 09:07:49;;;;;;;14.17;4.30;;;5.40;1.00;217.30;159155.00;;;;5024725;28;20481;-78
2022/01/09 09:10:18;;;;;;;8.60;2.73;;;5.40;1.00;5.80;67548.00;;;;5031134;28;21317;-79
2022/01/09 09:12:46;;;;;;;6.80;3.00;;;5.40;1.00;5.90;67562.00;;;;5027516;28;20457;-79
2022/01/09 09:15:15;;;;;;;8.83;2.90;;;5.50;1.00;5.90;98875.00;;;;5028815;28;20962;-78
2022/01/09 09:17:43;;;;;;;6.93;3.07;;;5.50;1.00;5.90;67573.00;;;;5024434;28;20956;-79
2022/01/09 09:20:14;;;;;;;9.00;3.27;;;5.80;1.00;6.00;67578.00;;;;5026196;28;20485;-79
2022/01/09 09:22:42;;;;;;;9.10;3.50;;;5.60;1.00;6.00;67595.00;;;;5020887;28;20454;-78
2022/01/09 09:25:13;;;;;;;11.30;3.10;;;5.70;1.00;6.10;98888.00;;;;5020296;28;20452;-78
2022/01/09 09:27:41;;;;;;;5.80;2.93;;;5.70;1.00;6.10;98907.00;;;;5028223;28;20557;-79
2022/01/09 09:30:14;;;;;;;9.00;3.00;;;6.00;1.00;6.20;67637.00;;;;5023649;28;20986;-80
2022/01/09 09:32:43;;;;;;;8.13;3.17;;;5.90;1.00;6.30;98899.00;;;;5023535;28;20484;-79
2022/01/09 09:35:13;;;;;;;6.90;2.83;;;5.90;1.00;6.30;67659.00;;;;5027590;28;20449;-79
2022/01/09 09:37:42;;;;;;;7.30;3.20;;;5.90;1.00;6.40;98921.00;;;;5036044;28;20461;-79
2022/01/09 09:40:12;;;;;;;6.50;2.60;;;6.00;1.00;6.40;98939.00;;;;5021291;28;20491;-78
2022/01/09 09:42:40;;;;;;;8.17;3.23;;;6.00;1.00;6.40;98915.00;;;;5019740;28;20468;-79
2022/01/09 09:45:12;;;;;;;7.10;2.90;;;6.00;1.00;6.40;98943.00;;;;5017707;28;20453;-78
2022/01/09 09:47:41;;;;;;;5.77;2.07;;;6.00;1.00;6.40;98930.00;;;;5034306;28;20480;-77
2022/01/09 09:50:15;;;;;;;7.40;2.50;;;6.00;1.00;6.40;98930.00;;;;5021985;28;20473;-78
2022/01/09 09:52:44;;;;;;;7.70;3.10;;;6.00;1.00;6.50;67690.00;;;;5023588;28;20446;-79
2022/01/09 09:55:13;;;;;;;4.80;2.60;;;6.10;1.00;6.50;98938.00;;;;5017642;28;20464;-78
2022/01/09 09:57:42;;;;;;;6.70;2.90;;;6.20;1.00;6.60;98949.00;;;;5020697;28;20457;-80
2022/01/09 10:00:14;;;;;;;7.07;2.50;;;6.50;1.00;6.70;67733.00;;;;5024267;28;20487;-80
2022/01/09 10:02:45;;;;;;;9.83;3.50;;;6.30;1.00;217.30;159571.00;;;;5026398;28;20453;-79
2022/01/09 10:05:18;;;;;;;11.13;3.10;;;6.40;1.00;6.90;67775.00;;;;5017967;28;20438;-78
2022/01/09 10:07:53;;;;;;;5.90;2.63;;;6.50;1.00;6.90;67775.00;;;;5021781;28;20840;-79
2022/01/09 10:10:30;;;;;;;4.83;2.60;;;6.50;1.00;217.30;159635.00;;;;5023003;28;20464;-78
2022/01/09 10:13:08;;;;;;;4.00;2.10;;;6.50;1.00;6.90;67783.00;;;;5021245;28;20444;-80
2022/01/09 10:15:50;;;;;;;8.90;2.90;;;6.50;1.00;6.90;98975.00;;;;5021987;28;20454;-80
2022/01/09 10:18:42;;;;;;;6.33;2.90;;;6.60;1.00;6.90;98959.00;;;;5030363;28;20496;-79
2022/01/09 10:21:14;;;;;;;5.43;2.70;;;6.50;1.00;7.00;98957.00;;;;5028072;28;20477;-80
2022/01/09 10:24:00;;;;;;;7.13;2.70;;;6.70;1.00;7.10;98964.00;;;;5023175;28;20534;-79
2022/01/09 10:26:31;;;;;;;6.57;2.03;;;6.80;1.00;7.10;67831.00;;;;5022801;28;20460;-80
2022/01/09 10:29:00;;;;;;;5.80;2.17;;;6.70;1.00;7.20;67857.00;;;;5028248;28;20485;-80
2022/01/09 10:31:28;;;;;;;4.40;2.10;;;6.80;1.00;7.30;67881.00;;;;5029975;28;20479;-78
2022/01/09 10:33:59;;;;;;;7.60;2.80;;;7.00;1.00;7.40;98964.00;;;;5036189;28;20450;-79
2022/01/09 10:36:41;;;;;;;7.20;2.83;;;7.10;1.00;7.50;67928.00;;;;5033383;28;20457;-79
2022/01/09 10:39:14;;;;;;;7.63;2.40;;;7.20;1.00;7.60;98945.00;;;;5028643;28;20472;-79
2022/01/09 10:41:55;;;;;;;8.03;2.60;;;7.30;1.00;7.60;98970.00;;;;5028419;28;20517;-78
2022/01/09 10:44:30;;;;;;;6.60;2.70;;;7.40;1.00;7.50;67924.00;;;;5024581;28;20539;-80
2022/01/09 10:47:01;;;;;;;9.20;3.00;;;7.20;1.00;7.50;98970.00;;;;5025218;28;20453;-78
2022/01/09 10:49:40;;;;;;;6.80;3.30;;;7.20;1.00;7.50;98957.00;;;;5021533;28;20481;-79
2022/01/09 10:52:20;;;;;;;8.97;2.50;;;7.10;1.00;7.50;67922.00;;;;5022124;28;20499;-79
2022/01/09 10:54:50;;;;;;;6.67;2.70;;;7.20;1.00;7.40;98978.00;;;;5022673;28;20487;-80
2022/01/09 10:57:21;;;;;;;5.93;2.30;;;7.00;1.00;7.30;98980.00;;;;5025494;28;20472;-79
2022/01/09 10:59:50;;;;;;;5.53;2.47;;;7.00;1.00;7.30;67881.00;;;;5033703;28;20472;-79
2022/01/09 11:02:20;;;;;;;9.83;2.37;;;7.10;1.00;7.30;67860.00;;;;5036361;28;21164;-79
2022/01/09 11:04:50;;;;;;;8.93;2.30;;;7.10;1.00;7.30;98995.00;;;;5034533;28;20491;-79
2022/01/09 11:07:20;;;;;;;7.33;2.27;;;6.90;1.00;7.40;67901.00;;;;5031124;28;20457;-79
2022/01/09 11:09:50;;;;;;;4.33;2.10;;;7.10;1.00;7.50;99001.00;;;;5029215;28;20519;-78
2022/01/09 11:12:21;;;;;;;5.87;1.90;;;7.10;1.00;52.70;159925.00;;;;5023350;28;20460;-80
2022/01/09 11:14:52;;;;;;;3.83;1.80;;;7.20;1.00;7.60;67939.00;;;;5044114;28;20969;-79
2022/01/09 11:17:22;;;;;;;4.50;1.90;;;7.20;1.00;7.60;67936.00;;;;5027504;28;20442;-79
2022/01/09 11:19:51;;;;;;;4.80;2.00;;;7.20;1.00;7.60;67939.00;;;;5020104;28;20484;-79
2022/01/09 11:22:23;;;;;;;3.00;1.40;;;7.20;1.00;7.60;98995.00;;;;5037247;28;20468;-79
2022/01/09 11:25:26;;;;;;;4.10;1.90;;;7.30;1.00;7.70;98996.00;;;;5024892;28;20536;-80
2022/01/09 11:28:05;;;;;;;6.07;2.20;;;7.30;1.00;7.70;99013.00;;;;5007783;28;20465;-80